createdAt,value
2017-09-08T00:00:45.950Z,0
2017-09-08T00:01:45.930Z,0
2017-09-08T00:02:45.640Z,0
2017-09-08T00:03:45.887Z,0
2017-09-08T00:04:45.872Z,0
2017-09-08T00:05:45.847Z,0
2017-09-08T00:06:45.826Z,0
2017-09-08T00:07:46.107Z,0
2017-09-08T00:08:45.772Z,0
2017-09-08T00:09:45.803Z,0
2017-09-08T00:10:45.734Z,0
2017-09-08T00:11:45.702Z,0
2017-09-08T00:12:45.696Z,0
2017-09-08T00:13:45.668Z,0
2017-09-08T00:14:45.648Z,0
2017-09-08T00:15:45.634Z,0
2017-09-08T00:16:45.601Z,0
2017-09-08T00:17:45.576Z,0
2017-09-08T00:18:45.560Z,0
2017-09-08T00:19:45.539Z,0
2017-09-08T00:20:45.523Z,0
2017-09-08T00:21:45.495Z,0
2017-09-08T00:22:45.482Z,0
2017-09-08T00:23:45.150Z,0
2017-09-08T00:24:45.484Z,0
2017-09-08T00:25:45.408Z,0
2017-09-08T00:26:45.082Z,0
2017-09-08T00:27:45.060Z,0
2017-09-08T00:28:45.398Z,0
2017-09-08T00:29:45.011Z,0
2017-09-08T00:30:44.999Z,0
2017-09-08T00:31:44.982Z,0
2017-09-08T00:32:45.313Z,0
2017-09-08T00:33:44.622Z,0
2017-09-08T00:34:45.217Z,0
2017-09-08T00:35:45.189Z,0
2017-09-08T00:36:45.174Z,0
2017-09-08T00:37:45.149Z,0
2017-09-08T00:38:45.233Z,0
2017-09-08T00:39:45.104Z,0
2017-09-08T00:40:44.783Z,0
2017-09-08T00:41:44.768Z,0
2017-09-08T00:42:45.037Z,0
2017-09-08T00:43:45.577Z,0
2017-09-08T00:44:45.001Z,0
2017-09-08T00:45:44.978Z,0
2017-09-08T00:46:44.650Z,0
2017-09-08T00:47:44.935Z,0
2017-09-08T00:48:44.623Z,0
2017-09-08T00:49:44.643Z,0
2017-09-08T00:50:44.873Z,0
2017-09-08T00:51:44.892Z,0
2017-09-08T00:52:44.827Z,0
2017-09-08T00:53:44.496Z,0
2017-09-08T00:54:44.796Z,0
2017-09-08T00:55:44.757Z,0
2017-09-08T00:56:44.437Z,0
2017-09-08T00:57:44.721Z,0
2017-09-08T00:58:44.497Z,0
2017-09-08T00:59:44.688Z,0
2017-09-08T01:00:44.655Z,0
2017-09-08T01:01:44.636Z,0
2017-09-08T01:02:44.605Z,0
2017-09-08T01:03:44.633Z,0
2017-09-08T01:04:44.626Z,0
2017-09-08T01:05:44.539Z,0
2017-09-08T01:06:44.516Z,0
2017-09-08T01:07:44.194Z,0
2017-09-08T01:08:44.491Z,0
2017-09-08T01:09:44.455Z,0
2017-09-08T01:10:44.441Z,0
2017-09-08T01:11:44.417Z,0
2017-09-08T01:12:44.388Z,0
2017-09-08T01:13:44.365Z,0
2017-09-08T01:14:44.349Z,0
2017-09-08T01:15:44.325Z,0
2017-09-08T01:16:43.996Z,0
2017-09-08T01:17:44.291Z,0
2017-09-08T01:18:44.275Z,0
2017-09-08T01:19:44.250Z,0
2017-09-08T01:20:44.219Z,0
2017-09-08T01:21:44.195Z,0
2017-09-08T01:22:44.483Z,0
2017-09-08T01:23:44.153Z,0
2017-09-08T01:24:44.122Z,0
2017-09-08T01:25:44.111Z,0
2017-09-08T01:26:44.090Z,0
2017-09-08T01:27:44.129Z,0
2017-09-08T01:28:44.049Z,0
2017-09-08T01:29:44.024Z,0
2017-09-08T01:30:44.003Z,0
2017-09-08T01:31:43.983Z,0
2017-09-08T01:32:43.956Z,0
2017-09-08T01:33:43.941Z,0
2017-09-08T01:34:43.602Z,0
2017-09-08T01:35:43.902Z,0
2017-09-08T01:36:43.871Z,0
2017-09-08T01:37:43.894Z,0
2017-09-08T01:38:43.513Z,0
2017-09-08T01:39:43.798Z,0
2017-09-08T01:40:43.776Z,0
2017-09-08T01:41:44.056Z,0
2017-09-08T01:42:43.740Z,0
2017-09-08T01:43:43.467Z,0
2017-09-08T01:44:43.691Z,0
2017-09-08T01:45:43.668Z,0
2017-09-08T01:46:43.645Z,0
2017-09-08T01:47:43.318Z,0
2017-09-08T01:48:43.647Z,0
2017-09-08T01:49:43.274Z,0
2017-09-08T01:50:43.556Z,0
2017-09-08T01:51:43.585Z,0
2017-09-08T01:52:43.304Z,0
2017-09-08T01:53:43.501Z,0
2017-09-08T01:54:43.472Z,0
2017-09-08T01:55:43.498Z,0
2017-09-08T01:56:43.111Z,0
2017-09-08T01:57:43.407Z,0
2017-09-08T01:58:43.379Z,0
2017-09-08T01:59:43.365Z,0
2017-09-08T02:00:43.339Z,0
2017-09-08T02:01:43.313Z,0
2017-09-08T02:02:43.294Z,0
2017-09-08T02:03:43.276Z,0
2017-09-08T02:04:43.254Z,0
2017-09-08T02:05:43.229Z,0
2017-09-08T02:06:43.205Z,0
2017-09-08T02:07:43.187Z,0
2017-09-08T02:08:43.217Z,0
2017-09-08T02:09:43.151Z,0
2017-09-08T02:10:43.118Z,0
2017-09-08T02:11:43.085Z,0
2017-09-08T02:12:43.080Z,0
2017-09-08T02:13:42.744Z,0
2017-09-08T02:14:43.035Z,0
2017-09-08T02:15:43.018Z,0
2017-09-08T02:16:42.983Z,0
2017-09-08T02:17:42.960Z,0
2017-09-08T02:18:42.634Z,0
2017-09-08T02:19:42.927Z,0
2017-09-08T02:20:42.892Z,0
2017-09-08T02:21:42.883Z,0
2017-09-08T02:22:42.853Z,0
2017-09-08T02:23:42.892Z,0
2017-09-08T02:24:42.867Z,0
2017-09-08T02:25:42.842Z,0
2017-09-08T02:26:42.819Z,0
2017-09-08T02:27:42.749Z,0
2017-09-08T02:28:42.720Z,0
2017-09-08T02:29:42.703Z,0
2017-09-08T02:30:42.712Z,0
2017-09-08T02:31:42.654Z,0
2017-09-08T02:32:42.325Z,0
2017-09-08T02:33:42.630Z,0
2017-09-08T02:34:42.701Z,0
2017-09-08T02:35:42.570Z,0
2017-09-08T02:36:42.557Z,0
2017-09-08T02:37:42.523Z,0
2017-09-08T02:38:42.494Z,0
2017-09-08T02:39:42.529Z,0
2017-09-08T02:40:42.458Z,0
2017-09-08T02:41:42.436Z,0
2017-09-08T02:42:42.420Z,0
2017-09-08T02:43:42.391Z,0
2017-09-08T02:44:42.366Z,0
2017-09-08T02:45:42.435Z,0
2017-09-08T02:46:42.331Z,0
2017-09-08T02:47:42.307Z,0
2017-09-08T02:48:42.280Z,0
2017-09-08T02:49:42.265Z,0
2017-09-08T02:50:42.233Z,0
2017-09-08T02:51:42.221Z,0
2017-09-08T02:52:41.889Z,0
2017-09-08T02:53:42.236Z,0
2017-09-08T02:54:42.146Z,0
2017-09-08T02:55:41.509Z,0
2017-09-08T02:56:42.105Z,0
2017-09-08T02:57:42.093Z,0
2017-09-08T02:58:42.062Z,0
2017-09-08T02:59:41.744Z,0
2017-09-08T03:00:42.019Z,0
2017-09-08T03:01:41.732Z,0
2017-09-08T03:02:41.971Z,0
2017-09-08T03:03:41.956Z,0
2017-09-08T03:04:41.931Z,0
2017-09-08T03:05:41.607Z,0
2017-09-08T03:06:41.888Z,0
2017-09-08T03:07:41.868Z,0
2017-09-08T03:08:41.843Z,0
2017-09-08T03:09:41.829Z,0
2017-09-08T03:10:41.806Z,0
2017-09-08T03:11:41.468Z,0
2017-09-08T03:12:42.258Z,0
2017-09-08T03:13:41.739Z,0
2017-09-08T03:14:41.735Z,0
2017-09-08T03:15:41.689Z,0
2017-09-08T03:16:41.676Z,0
2017-09-08T03:17:41.901Z,0
2017-09-08T03:18:41.717Z,0
2017-09-08T03:19:41.600Z,0
2017-09-08T03:20:41.591Z,0
2017-09-08T03:21:41.252Z,0
2017-09-08T03:22:41.233Z,0
2017-09-08T03:23:41.515Z,0
2017-09-08T03:24:41.180Z,0
2017-09-08T03:25:41.206Z,0
2017-09-08T03:26:41.444Z,0
2017-09-08T03:27:41.121Z,0
2017-09-08T03:28:41.133Z,0
2017-09-08T03:29:41.384Z,0
2017-09-08T03:30:41.409Z,0
2017-09-08T03:31:41.346Z,0
2017-09-08T03:32:41.576Z,0
2017-09-08T03:33:41.295Z,0
2017-09-08T03:34:41.269Z,0
2017-09-08T03:35:41.244Z,0
2017-09-08T03:36:41.277Z,0
2017-09-08T03:37:41.208Z,0
2017-09-08T03:38:41.180Z,0
2017-09-08T03:39:41.164Z,0
2017-09-08T03:40:41.138Z,0
2017-09-08T03:41:41.117Z,0
2017-09-08T03:42:41.102Z,0
2017-09-08T03:43:41.086Z,0
2017-09-08T03:44:41.058Z,0
2017-09-08T03:45:41.038Z,0
2017-09-08T03:46:41.016Z,0
2017-09-08T03:47:40.991Z,0
2017-09-08T03:48:40.969Z,0
2017-09-08T03:49:40.950Z,0
2017-09-08T03:50:40.924Z,0
2017-09-08T03:51:40.897Z,0
2017-09-08T03:52:40.878Z,0
2017-09-08T03:53:40.858Z,0
2017-09-08T03:54:40.836Z,0
2017-09-08T03:55:40.821Z,0
2017-09-08T03:56:40.787Z,0
2017-09-08T03:57:40.466Z,0
2017-09-08T03:58:40.795Z,0
2017-09-08T03:59:40.736Z,0
2017-09-08T04:00:40.698Z,0
2017-09-08T04:01:40.680Z,0
2017-09-08T04:02:40.665Z,0
2017-09-08T04:03:40.634Z,0
2017-09-08T04:04:40.313Z,0
2017-09-08T04:05:40.606Z,0
2017-09-08T04:06:40.573Z,0
2017-09-08T04:07:40.545Z,0
2017-09-08T04:08:40.537Z,0
2017-09-08T04:09:40.503Z,0
2017-09-08T04:10:40.484Z,0
2017-09-08T04:11:40.159Z,0
2017-09-08T04:12:40.459Z,0
2017-09-08T04:13:40.421Z,0
2017-09-08T04:14:40.395Z,0
2017-09-08T04:15:40.075Z,0
2017-09-08T04:16:40.399Z,0
2017-09-08T04:17:40.337Z,0
2017-09-08T04:18:40.314Z,0
2017-09-08T04:19:40.293Z,0
2017-09-08T04:20:40.274Z,0
2017-09-08T04:21:40.249Z,0
2017-09-08T04:22:39.920Z,0
2017-09-08T04:23:40.236Z,0
2017-09-08T04:24:40.236Z,0
2017-09-08T04:25:40.160Z,0
2017-09-08T04:26:40.194Z,0
2017-09-08T04:27:40.166Z,0
2017-09-08T04:28:40.094Z,0
2017-09-08T04:29:40.121Z,0
2017-09-08T04:30:40.104Z,0
2017-09-08T04:31:40.027Z,0
2017-09-08T04:32:40.011Z,0
2017-09-08T04:33:39.985Z,0
2017-09-08T04:34:39.960Z,0
2017-09-08T04:35:39.985Z,0
2017-09-08T04:36:39.921Z,0
2017-09-08T04:37:39.898Z,0
2017-09-08T04:38:39.566Z,0
2017-09-08T04:39:39.855Z,0
2017-09-08T04:40:39.524Z,0
2017-09-08T04:41:39.813Z,0
2017-09-08T04:42:39.791Z,0
2017-09-08T04:43:39.760Z,0
2017-09-08T04:44:39.451Z,0
2017-09-08T04:45:39.412Z,0
2017-09-08T04:46:39.688Z,0
2017-09-08T04:47:39.687Z,0
2017-09-08T04:48:39.654Z,0
2017-09-08T04:49:39.731Z,0
2017-09-08T04:50:39.622Z,0
2017-09-08T04:51:39.586Z,0
2017-09-08T04:52:39.261Z,0
2017-09-08T04:53:39.605Z,0
2017-09-08T04:54:39.536Z,0
2017-09-08T04:55:38.883Z,0
2017-09-08T04:56:39.479Z,0
2017-09-08T04:57:39.159Z,0
2017-09-08T04:58:39.431Z,0
2017-09-08T04:59:39.460Z,0
2017-09-08T05:00:39.389Z,0
2017-09-08T05:01:39.062Z,0
2017-09-08T05:02:39.346Z,0
2017-09-08T05:03:39.032Z,0
2017-09-08T05:04:39.304Z,0
2017-09-08T05:05:39.280Z,0
2017-09-08T05:06:39.262Z,5
2017-09-08T05:07:38.990Z,5
2017-09-08T05:08:39.272Z,5
2017-09-08T05:09:39.200Z,5
2017-09-08T05:10:39.176Z,5
2017-09-08T05:11:39.160Z,5
2017-09-08T05:12:39.129Z,5
2017-09-08T05:13:39.097Z,5
2017-09-08T05:14:38.782Z,5
2017-09-08T05:15:39.069Z,5
2017-09-08T05:16:39.034Z,10
2017-09-08T05:17:39.023Z,10
2017-09-08T05:18:39.004Z,10
2017-09-08T05:19:38.979Z,10
2017-09-08T05:20:38.963Z,10
2017-09-08T05:21:38.931Z,10
2017-09-08T05:22:38.905Z,15
2017-09-08T05:23:38.904Z,15
2017-09-08T05:24:38.558Z,15
2017-09-08T05:25:38.903Z,15
2017-09-08T05:26:39.474Z,15
2017-09-08T05:27:38.796Z,20
2017-09-08T05:28:38.472Z,20
2017-09-08T05:29:38.754Z,20
2017-09-08T05:30:38.739Z,20
2017-09-08T05:31:38.723Z,20
2017-09-08T05:32:38.381Z,15
2017-09-08T05:33:38.667Z,15
2017-09-08T05:34:38.647Z,15
2017-09-08T05:35:38.622Z,15
2017-09-08T05:36:38.607Z,15
2017-09-08T05:37:38.578Z,15
2017-09-08T05:38:38.250Z,15
2017-09-08T05:39:38.238Z,20
2017-09-08T05:40:38.215Z,15
2017-09-08T05:41:38.496Z,15
2017-09-08T05:42:38.466Z,15
2017-09-08T05:43:38.464Z,15
2017-09-08T05:44:38.476Z,15
2017-09-08T05:45:38.401Z,15
2017-09-08T05:46:38.073Z,15
2017-09-08T05:47:38.365Z,15
2017-09-08T05:48:38.346Z,15
2017-09-08T05:49:38.056Z,15
2017-09-08T05:50:38.304Z,15
2017-09-08T05:51:37.973Z,15
2017-09-08T05:52:37.942Z,15
2017-09-08T05:53:37.933Z,20
2017-09-08T05:54:37.899Z,20
2017-09-08T05:55:38.233Z,25
2017-09-08T05:56:38.205Z,25
2017-09-08T05:57:37.860Z,25
2017-09-08T05:58:38.121Z,25
2017-09-08T05:59:38.099Z,25
2017-09-08T06:00:38.080Z,30
2017-09-08T06:01:38.067Z,30
2017-09-08T06:02:38.048Z,30
2017-09-08T06:03:38.073Z,30
2017-09-08T06:04:37.988Z,30
2017-09-08T06:05:38.016Z,30
2017-09-08T06:06:37.949Z,30
2017-09-08T06:07:37.922Z,25
2017-09-08T06:08:37.899Z,25
2017-09-08T06:09:37.873Z,30
2017-09-08T06:10:37.870Z,30
2017-09-08T06:11:37.836Z,35
2017-09-08T06:12:37.827Z,35
2017-09-08T06:13:37.796Z,40
2017-09-08T06:14:37.771Z,45
2017-09-08T06:15:37.748Z,50
2017-09-08T06:16:37.117Z,50
2017-09-08T06:17:37.729Z,55
2017-09-08T06:18:37.685Z,60
2017-09-08T06:19:37.661Z,60
2017-09-08T06:20:37.636Z,70
2017-09-08T06:21:37.303Z,80
2017-09-08T06:22:37.599Z,95
2017-09-08T06:23:37.262Z,105
2017-09-08T06:24:37.552Z,130
2017-09-08T06:25:37.635Z,150
2017-09-08T06:26:37.509Z,160
2017-09-08T06:27:37.485Z,160
2017-09-08T06:28:37.454Z,160
2017-09-08T06:29:37.443Z,160
2017-09-08T06:30:37.418Z,160
2017-09-08T06:31:36.863Z,170
2017-09-08T06:32:37.197Z,165
2017-09-08T06:33:36.853Z,145
2017-09-08T06:34:36.749Z,125
2017-09-08T06:35:36.735Z,115
2017-09-08T06:36:36.819Z,100
2017-09-08T06:37:37.263Z,95
2017-09-08T06:38:37.246Z,90
2017-09-08T06:39:37.221Z,85
2017-09-08T06:40:37.196Z,90
2017-09-08T06:41:37.184Z,85
2017-09-08T06:42:37.153Z,90
2017-09-08T06:43:37.138Z,95
2017-09-08T06:44:37.116Z,90
2017-09-08T06:45:37.093Z,85
2017-09-08T06:46:36.456Z,75
2017-09-08T06:47:37.058Z,70
2017-09-08T06:48:37.036Z,70
2017-09-08T06:49:37.059Z,80
2017-09-08T06:50:36.985Z,95
2017-09-08T06:51:36.973Z,95
2017-09-08T06:52:36.985Z,105
2017-09-08T06:53:36.623Z,125
2017-09-08T06:54:36.599Z,120
2017-09-08T06:55:36.881Z,100
2017-09-08T06:56:36.869Z,80
2017-09-08T06:57:36.221Z,70
2017-09-08T06:58:36.812Z,70
2017-09-08T06:59:36.788Z,80
2017-09-08T07:00:36.266Z,85
2017-09-08T07:01:36.748Z,95
2017-09-08T07:02:36.427Z,115
2017-09-08T07:03:36.545Z,140
2017-09-08T07:04:36.688Z,155
2017-09-08T07:05:36.356Z,160
2017-09-08T07:06:36.655Z,150
2017-09-08T07:07:36.352Z,130
2017-09-08T07:08:36.609Z,115
2017-09-08T07:09:36.574Z,105
2017-09-08T07:10:36.551Z,95
2017-09-08T07:11:36.535Z,95
2017-09-08T07:12:36.197Z,95
2017-09-08T07:13:36.234Z,90
2017-09-08T07:14:36.466Z,95
2017-09-08T07:15:36.660Z,100
2017-09-08T07:16:36.521Z,105
2017-09-08T07:17:36.094Z,105
2017-09-08T07:18:36.387Z,120
2017-09-08T07:19:36.363Z,115
2017-09-08T07:20:36.444Z,120
2017-09-08T07:21:36.317Z,140
2017-09-08T07:22:36.296Z,160
2017-09-08T07:23:35.966Z,180
2017-09-08T07:24:35.941Z,180
2017-09-08T07:25:36.246Z,175
2017-09-08T07:26:36.215Z,170
2017-09-08T07:27:36.186Z,145
2017-09-08T07:28:36.220Z,140
2017-09-08T07:29:36.143Z,105
2017-09-08T07:30:36.126Z,95
2017-09-08T07:31:35.791Z,100
2017-09-08T07:32:36.083Z,100
2017-09-08T07:33:36.166Z,105
2017-09-08T07:34:36.040Z,125
2017-09-08T07:35:36.011Z,130
2017-09-08T07:36:35.927Z,120
2017-09-08T07:37:36.027Z,100
2017-09-08T07:38:35.691Z,95
2017-09-08T07:39:35.929Z,125
2017-09-08T07:40:36.002Z,140
2017-09-08T07:41:35.893Z,145
2017-09-08T07:42:35.868Z,160
2017-09-08T07:43:35.851Z,160
2017-09-08T07:44:35.817Z,150
2017-09-08T07:45:35.811Z,160
2017-09-08T07:46:35.623Z,155
2017-09-08T07:47:35.757Z,155
2017-09-08T07:48:35.959Z,190
2017-09-08T07:49:35.721Z,190
2017-09-08T07:50:35.706Z,150
2017-09-08T07:51:35.673Z,140
2017-09-08T07:52:35.763Z,150
2017-09-08T07:53:35.622Z,155
2017-09-08T07:54:35.462Z,170
2017-09-08T07:55:35.787Z,165
2017-09-08T07:56:35.569Z,165
2017-09-08T07:57:35.650Z,160
2017-09-08T07:58:35.527Z,150
2017-09-08T07:59:35.499Z,150
2017-09-08T08:00:35.489Z,155
2017-09-08T08:01:35.900Z,180
2017-09-08T08:02:35.126Z,175
2017-09-08T08:03:35.205Z,170
2017-09-08T08:04:35.481Z,170
2017-09-08T08:05:35.369Z,180
2017-09-08T08:06:35.357Z,185
2017-09-08T08:07:35.376Z,160
2017-09-08T08:08:35.001Z,150
2017-09-08T08:09:34.975Z,150
2017-09-08T08:10:35.358Z,145
2017-09-08T08:11:34.966Z,150
2017-09-08T08:12:35.265Z,160
2017-09-08T08:13:35.195Z,175
2017-09-08T08:14:35.237Z,200
2017-09-08T08:15:35.164Z,215
2017-09-08T08:16:35.144Z,225
2017-09-08T08:17:35.111Z,235
2017-09-08T08:18:35.104Z,220
2017-09-08T08:19:35.061Z,210
2017-09-08T08:20:35.104Z,180
2017-09-08T08:21:34.768Z,155
2017-09-08T08:22:35.014Z,125
2017-09-08T08:23:34.993Z,125
2017-09-08T08:24:34.963Z,110
2017-09-08T08:25:34.940Z,115
2017-09-08T08:26:34.968Z,125
2017-09-08T08:27:34.633Z,130
2017-09-08T08:28:34.880Z,145
2017-09-08T08:29:35.066Z,180
2017-09-08T08:30:34.939Z,180
2017-09-08T08:31:34.814Z,150
2017-09-08T08:32:34.783Z,160
2017-09-08T08:33:34.769Z,145
2017-09-08T08:34:34.745Z,135
2017-09-08T08:35:34.737Z,160
2017-09-08T08:36:34.437Z,200
2017-09-08T08:37:34.689Z,235
2017-09-08T08:38:34.670Z,240
2017-09-08T08:39:34.335Z,220
2017-09-08T08:40:34.925Z,220
2017-09-08T08:41:34.295Z,220
2017-09-08T08:42:34.270Z,190
2017-09-08T08:43:34.561Z,200
2017-09-08T08:44:34.658Z,200
2017-09-08T08:45:34.260Z,195
2017-09-08T08:46:34.594Z,205
2017-09-08T08:47:34.469Z,255
2017-09-08T08:48:34.547Z,310
2017-09-08T08:49:34.132Z,310
2017-09-08T08:50:34.419Z,290
2017-09-08T08:51:34.481Z,255
2017-09-08T08:52:34.356Z,215
2017-09-08T08:53:34.603Z,175
2017-09-08T08:54:34.334Z,175
2017-09-08T08:55:34.309Z,165
2017-09-08T08:56:33.506Z,180
2017-09-08T08:57:34.256Z,170
2017-09-08T08:58:34.232Z,210
2017-09-08T08:59:34.214Z,205
2017-09-08T09:00:34.204Z,175
2017-09-08T09:01:34.179Z,180
2017-09-08T09:02:34.148Z,195
2017-09-08T09:03:34.336Z,185
2017-09-08T09:04:34.117Z,175
2017-09-08T09:05:34.247Z,160
2017-09-08T09:06:34.082Z,155
2017-09-08T09:07:34.102Z,165
2017-09-08T09:08:34.134Z,195
2017-09-08T09:09:33.700Z,210
2017-09-08T09:10:33.883Z,200
2017-09-08T09:11:33.981Z,195
2017-09-08T09:12:33.641Z,200
2017-09-08T09:13:33.930Z,215
2017-09-08T09:14:33.602Z,240
2017-09-08T09:15:34.085Z,235
2017-09-08T09:16:33.775Z,240
2017-09-08T09:17:33.845Z,260
2017-09-08T09:18:34.018Z,245
2017-09-08T09:19:33.802Z,275
2017-09-08T09:20:33.973Z,300
2017-09-08T09:21:33.769Z,280
2017-09-08T09:22:33.739Z,275
2017-09-08T09:23:33.768Z,285
2017-09-08T09:24:33.748Z,285
2017-09-08T09:25:33.819Z,290
2017-09-08T09:26:33.368Z,275
2017-09-08T09:27:33.332Z,225
2017-09-08T09:28:33.915Z,200
2017-09-08T09:29:33.804Z,215
2017-09-08T09:30:33.624Z,220
2017-09-08T09:31:33.394Z,225
2017-09-08T09:32:33.628Z,255
2017-09-08T09:33:33.503Z,265
2017-09-08T09:34:33.492Z,245
2017-09-08T09:35:33.155Z,215
2017-09-08T09:36:33.443Z,190
2017-09-08T09:37:33.424Z,195
2017-09-08T09:38:33.091Z,190
2017-09-08T09:39:33.378Z,155
2017-09-08T09:40:33.655Z,155
2017-09-08T09:41:33.489Z,160
2017-09-08T09:42:33.394Z,180
2017-09-08T09:43:32.985Z,205
2017-09-08T09:44:33.422Z,225
2017-09-08T09:45:33.263Z,195
2017-09-08T09:46:32.931Z,180
2017-09-08T09:47:33.360Z,165
2017-09-08T09:48:33.191Z,175
2017-09-08T09:49:33.172Z,185
2017-09-08T09:50:33.296Z,200
2017-09-08T09:51:33.219Z,205
2017-09-08T09:52:33.311Z,265
2017-09-08T09:53:33.081Z,215
2017-09-08T09:54:33.206Z,225
2017-09-08T09:55:33.038Z,235
2017-09-08T09:56:32.715Z,225
2017-09-08T09:57:32.787Z,235
2017-09-08T09:58:32.972Z,240
2017-09-08T09:59:33.160Z,230
2017-09-08T10:00:33.074Z,215
2017-09-08T10:01:32.909Z,215
2017-09-08T10:02:33.250Z,225
2017-09-08T10:03:32.863Z,200
2017-09-08T10:04:33.304Z,195
2017-09-08T10:05:32.824Z,195
2017-09-08T10:06:32.812Z,200
2017-09-08T10:07:32.782Z,200
2017-09-08T10:08:32.766Z,165
2017-09-08T10:09:32.741Z,135
2017-09-08T10:10:32.922Z,140
2017-09-08T10:11:32.904Z,135
2017-09-08T10:12:32.771Z,110
2017-09-08T10:13:32.810Z,115
2017-09-08T10:14:32.781Z,140
2017-09-08T10:15:32.813Z,150
2017-09-08T10:16:31.969Z,195
2017-09-08T10:17:32.674Z,185
2017-09-08T10:18:32.799Z,160
2017-09-08T10:19:32.525Z,140
2017-09-08T10:20:32.498Z,170
2017-09-08T10:21:32.321Z,275
2017-09-08T10:22:32.851Z,270
2017-09-08T10:23:32.326Z,190
2017-09-08T10:24:32.410Z,210
2017-09-08T10:25:32.084Z,220
2017-09-08T10:26:32.326Z,210
2017-09-08T10:27:32.363Z,260
2017-09-08T10:28:32.333Z,265
2017-09-08T10:29:32.401Z,260
2017-09-08T10:30:32.289Z,285
2017-09-08T10:31:32.262Z,295
2017-09-08T10:32:32.237Z,260
2017-09-08T10:33:31.958Z,300
2017-09-08T10:34:32.300Z,285
2017-09-08T10:35:32.330Z,250
2017-09-08T10:36:32.200Z,245
2017-09-08T10:37:32.229Z,270
2017-09-08T10:38:32.168Z,260
2017-09-08T10:39:32.095Z,235
2017-09-08T10:40:32.082Z,230
2017-09-08T10:41:32.148Z,230
2017-09-08T10:42:32.129Z,185
2017-09-08T10:43:32.104Z,150
2017-09-08T10:44:31.995Z,135
2017-09-08T10:45:32.064Z,125
2017-09-08T10:46:31.637Z,135
2017-09-08T10:47:31.929Z,135
2017-09-08T10:48:32.048Z,145
2017-09-08T10:49:31.877Z,140
2017-09-08T10:50:32.019Z,160
2017-09-08T10:51:31.889Z,170
2017-09-08T10:52:31.817Z,190
2017-09-08T10:53:31.788Z,185
2017-09-08T10:54:31.778Z,185
2017-09-08T10:55:31.861Z,175
2017-09-08T10:56:32.074Z,190
2017-09-08T10:57:31.907Z,195
2017-09-08T10:58:31.690Z,215
2017-09-08T10:59:31.758Z,235
2017-09-08T11:00:31.657Z,220
2017-09-08T11:01:31.616Z,245
2017-09-08T11:02:31.666Z,220
2017-09-08T11:03:31.673Z,195
2017-09-08T11:04:31.725Z,145
2017-09-08T11:05:31.280Z,130
2017-09-08T11:06:31.044Z,145
2017-09-08T11:07:31.539Z,185
2017-09-08T11:08:31.525Z,205
2017-09-08T11:09:31.466Z,215
2017-09-08T11:10:31.433Z,245
2017-09-08T11:11:31.104Z,280
2017-09-08T11:12:31.533Z,250
2017-09-08T11:13:31.424Z,235
2017-09-08T11:14:31.603Z,215
2017-09-08T11:15:31.874Z,200
2017-09-08T11:16:31.309Z,195
2017-09-08T11:17:31.287Z,215
2017-09-08T11:18:31.516Z,200
2017-09-08T11:19:31.459Z,210
2017-09-08T11:20:31.268Z,215
2017-09-08T11:21:31.201Z,220
2017-09-08T11:22:31.269Z,190
2017-09-08T11:23:31.151Z,180
2017-09-08T11:24:31.128Z,190
2017-09-08T11:25:31.410Z,175
2017-09-08T11:26:31.240Z,195
2017-09-08T11:27:31.072Z,190
2017-09-08T11:28:31.045Z,180
2017-09-08T11:29:31.028Z,185
2017-09-08T11:30:31.050Z,205
2017-09-08T11:31:30.832Z,170
2017-09-08T11:32:30.648Z,205
2017-09-08T11:33:30.930Z,160
2017-09-08T11:34:30.965Z,110
2017-09-08T11:35:31.154Z,125
2017-09-08T11:36:31.089Z,120
2017-09-08T11:37:30.851Z,130
2017-09-08T11:38:30.843Z,105
2017-09-08T11:39:31.008Z,115
2017-09-08T11:40:30.992Z,125
2017-09-08T11:41:30.761Z,110
2017-09-08T11:42:30.746Z,110
2017-09-08T11:43:30.731Z,95
2017-09-08T11:44:30.706Z,105
2017-09-08T11:45:30.684Z,165
2017-09-08T11:46:30.971Z,145
2017-09-08T11:47:30.385Z,135
2017-09-08T11:48:30.614Z,125
2017-09-08T11:49:30.643Z,135
2017-09-08T11:50:30.723Z,120
2017-09-08T11:51:30.491Z,135
2017-09-08T11:52:30.523Z,95
2017-09-08T11:53:30.610Z,145
2017-09-08T11:54:30.743Z,120
2017-09-08T11:55:30.623Z,120
2017-09-08T11:56:30.449Z,125
2017-09-08T11:57:30.573Z,185
2017-09-08T11:58:30.149Z,175
2017-09-08T11:59:30.386Z,125
2017-09-08T12:00:30.462Z,155
2017-09-08T12:01:30.196Z,110
2017-09-08T12:02:30.423Z,100
2017-09-08T12:03:30.399Z,85
2017-09-08T12:04:30.585Z,95
2017-09-08T12:05:30.602Z,100
2017-09-08T12:06:30.235Z,85
2017-09-08T12:07:30.209Z,90
2017-09-08T12:08:29.991Z,95
2017-09-08T12:09:30.266Z,115
2017-09-08T12:10:30.350Z,95
2017-09-08T12:11:30.167Z,95
2017-09-08T12:12:29.792Z,75
2017-09-08T12:13:30.324Z,90
2017-09-08T12:14:30.165Z,125
2017-09-08T12:15:29.950Z,115
2017-09-08T12:16:30.024Z,155
2017-09-08T12:17:30.095Z,170
2017-09-08T12:18:29.968Z,195
2017-09-08T12:19:29.949Z,190
2017-09-08T12:20:29.714Z,240
2017-09-08T12:21:29.796Z,220
2017-09-08T12:22:29.583Z,210
2017-09-08T12:23:29.873Z,220
2017-09-08T12:24:29.686Z,250
2017-09-08T12:25:29.810Z,275
2017-09-08T12:26:29.788Z,230
2017-09-08T12:27:29.816Z,195
2017-09-08T12:28:29.571Z,190
2017-09-08T12:29:29.003Z,215
2017-09-08T12:30:29.964Z,220
2017-09-08T12:31:29.348Z,155
2017-09-08T12:32:29.774Z,115
2017-09-08T12:33:29.997Z,115
2017-09-08T12:34:29.823Z,115
2017-09-08T12:35:29.710Z,105
2017-09-08T12:36:29.592Z,80
2017-09-08T12:37:29.577Z,65
2017-09-08T12:38:29.550Z,95
2017-09-08T12:39:29.574Z,95
2017-09-08T12:40:29.494Z,120
2017-09-08T12:41:29.772Z,95
2017-09-08T12:42:29.483Z,90
2017-09-08T12:43:29.547Z,95
2017-09-08T12:44:29.569Z,100
2017-09-08T12:45:29.497Z,100
2017-09-08T12:46:29.374Z,135
2017-09-08T12:47:29.354Z,95
2017-09-08T12:48:29.528Z,120
2017-09-08T12:49:29.362Z,95
2017-09-08T12:50:29.291Z,115
2017-09-08T12:51:29.425Z,110
2017-09-08T12:52:28.942Z,85
2017-09-08T12:53:29.022Z,60
2017-09-08T12:54:29.397Z,75
2017-09-08T12:55:28.876Z,75
2017-09-08T12:56:29.146Z,80
2017-09-08T12:57:28.826Z,90
2017-09-08T12:58:29.126Z,95
2017-09-08T12:59:29.105Z,85
2017-09-08T13:00:29.035Z,80
2017-09-08T13:01:29.052Z,85
2017-09-08T13:02:29.308Z,80
2017-09-08T13:03:29.062Z,65
2017-09-08T13:04:28.561Z,85
2017-09-08T13:05:28.969Z,140
2017-09-08T13:06:29.040Z,105
2017-09-08T13:07:28.989Z,135
2017-09-08T13:08:28.902Z,155
2017-09-08T13:09:29.078Z,165
2017-09-08T13:10:28.963Z,150
2017-09-08T13:11:28.926Z,180
2017-09-08T13:12:28.611Z,175
2017-09-08T13:13:28.486Z,180
2017-09-08T13:14:28.920Z,130
2017-09-08T13:15:28.687Z,115
2017-09-08T13:16:28.747Z,85
2017-09-08T13:17:28.541Z,95
2017-09-08T13:18:28.948Z,125
2017-09-08T13:19:28.718Z,175
2017-09-08T13:20:28.742Z,100
2017-09-08T13:21:28.418Z,155
2017-09-08T13:22:28.698Z,160
2017-09-08T13:23:28.569Z,170
2017-09-08T13:24:28.555Z,170
2017-09-08T13:25:28.687Z,130
2017-09-08T13:26:28.583Z,190
2017-09-08T13:27:28.484Z,220
2017-09-08T13:28:28.466Z,250
2017-09-08T13:29:28.453Z,180
2017-09-08T13:30:28.532Z,180
2017-09-08T13:31:28.407Z,210
2017-09-08T13:32:28.560Z,165
2017-09-08T13:33:28.373Z,240
2017-09-08T13:34:27.780Z,305
2017-09-08T13:35:28.115Z,210
2017-09-08T13:36:28.304Z,280
2017-09-08T13:37:27.965Z,260
2017-09-08T13:38:28.249Z,270
2017-09-08T13:39:28.331Z,250
2017-09-08T13:40:28.618Z,245
2017-09-08T13:41:27.885Z,180
2017-09-08T13:42:28.179Z,225
2017-09-08T13:43:28.248Z,185
2017-09-08T13:44:28.130Z,160
2017-09-08T13:45:28.196Z,160
2017-09-08T13:46:28.101Z,150
2017-09-08T13:47:28.064Z,170
2017-09-08T13:48:28.449Z,150
2017-09-08T13:49:28.131Z,180
2017-09-08T13:50:28.002Z,195
2017-09-08T13:51:28.085Z,180
2017-09-08T13:52:27.963Z,180
2017-09-08T13:53:28.090Z,175
2017-09-08T13:54:27.921Z,200
2017-09-08T13:55:27.953Z,155
2017-09-08T13:56:27.885Z,205
2017-09-08T13:57:27.956Z,185
2017-09-08T13:58:27.980Z,255
2017-09-08T13:59:27.808Z,255
2017-09-08T14:00:27.790Z,175
2017-09-08T14:01:27.665Z,185
2017-09-08T14:02:27.478Z,175
2017-09-08T14:03:28.073Z,165
2017-09-08T14:04:27.902Z,175
2017-09-08T14:05:27.830Z,235
2017-09-08T14:06:27.813Z,215
2017-09-08T14:07:27.685Z,245
2017-09-08T14:08:27.874Z,260
2017-09-08T14:09:27.595Z,205
2017-09-08T14:10:27.579Z,190
2017-09-08T14:11:27.708Z,215
2017-09-08T14:12:27.684Z,165